Dairy, OR (97625)

3:53 AM PDT on September 16, 2014 (GMT -0700)
Plum Hill | Change Station
CLOSE
Current Station
Personal Weather Station
Location: Klamath Falls, OR
Elevation: 4700 ft
Nearby Weather Stations

Elev 4700 ft 42.25 °N, 121.75 °W | Updated 8 minutes ago

Clear
Clear
63.5 °F
Feels Like 63.5 °F
N
2.2
Wind Variable Wind from ESE
Gusts 6.9 mph

Today
High -- | Low -- °F
--% Chance of Precip.
Yesterday
High -- | Low -- °F
Precip. -- in
6:47 AM 7:14 PM
Waning Gibbous, 46% visible
Pressure 29.88 in
Visibility 10.0 miles
Clouds Clear
Dew Point 30 °F
Humidity 28%
Rainfall 0.00 in
Snow Depth 1 in , 0 in , 1 in
UV 0 out of 12
Pollen 4.30 out of 12
Air Quality Not available.
Flu Activity Not available.
METAR KLMT 160953Z AUTO 14003KT 10SM CLR 13/01 A3001 RMK AO2 SLP116 T01280011

More Conditions Fewer Conditions

Pressure 29.88 in
Visibility 10.0 miles
Clouds Clear
Dew Point 30 °F
Humidity 28%
Rainfall 0.00 in
Snow Depth 1 in , 0 in , 1 in
UV 0 out of 12
Pollen 4.30 out of 12
Air Quality Not available.
Flu Activity Not available.
METAR KLMT 160953Z AUTO 14003KT 10SM CLR 13/01 A3001 RMK AO2 SLP116 T01280011

More Conditions Fewer Conditions

10-Day Weather Forecast

Almanac

Astronomy

Sep. 16, 2014 Rise Set
Actual Time 6:47 AM PDT 7:14 PM PDT
Civil Twilight 6:19 AM PDT 7:42 PM PDT
Nautical Twilight 5:46 AM PDT 8:15 PM PDT
Astronomical Twilight 5:12 AM PDT 8:49 PM PDT
Moon No Moon Rise 2:47 PM PDT
Length of Visible Light 13h 22m
Length of Day
12h 26m
Tomorrow will be 2m 50s shorter.
Waning Gibbous, 46% of the Moon is Illuminated
Today
Waning Gibbous
Sep 24
New
Oct 1
First Quarter
Oct 8
Full
Oct 15
Last Quarter

Today's Extremes

State Highs State Lows

Community

WunderPhotos

Upload Photos

1,753,720 photos uploaded!

WunderBlogs® & News

Nearby

Snow Depth

Station Depth Elevation
Schneider Meadows 0 in 5400 ft
Blue Mountain Spring 0 in 5900 ft
Silver Creek 0 in 5720 ft
Bourne 0 in 5800 ft
Santiam Junction 0 in 3750 ft

Earthquake Activity

City Distance Mag. Time & Date
No recent earthquake activity has been reported nearby.
Minimum magnitude displayed is 2.5.

Coastal Water Temperatures

Place Temperature
No Stations Reporting

Nearby Weather Stations